createdAt,value
2018-10-12T00:01:00.294Z,16.60
2018-10-12T00:03:28.403Z,16.40
2018-10-12T00:05:56.486Z,16.50
2018-10-12T00:08:24.653Z,16.60
2018-10-12T00:10:52.729Z,16.50
2018-10-12T00:13:20.812Z,16.60
2018-10-12T00:15:48.938Z,16.50
2018-10-12T00:18:17.088Z,16.30
2018-10-12T00:20:45.121Z,16.40
2018-10-12T00:23:13.192Z,16.30
2018-10-12T00:25:41.293Z,16.20
2018-10-12T00:28:09.446Z,16.50
2018-10-12T00:30:37.495Z,16.60
2018-10-12T00:33:05.649Z,16.60
2018-10-12T00:35:33.760Z,16.80
2018-10-12T00:38:01.826Z,16.80
2018-10-12T00:40:29.926Z,16.50
2018-10-12T00:42:58.023Z,16.60
2018-10-12T00:45:26.210Z,16.80
2018-10-12T00:48:00.529Z,16.80
2018-10-12T00:50:30.696Z,16.40
2018-10-12T00:52:59.129Z,16.50
2018-10-12T00:55:28.355Z,16.60
2018-10-12T00:57:56.423Z,16.30
2018-10-12T01:00:25.646Z,16.30
2018-10-12T01:02:54.168Z,16.20
2018-10-12T01:05:22.368Z,15.90
2018-10-12T01:07:50.450Z,15.90
2018-10-12T01:10:18.555Z,15.90
2018-10-12T01:12:46.993Z,15.90
2018-10-12T01:15:15.163Z,15.70
2018-10-12T01:17:43.320Z,15.60
2018-10-12T01:20:11.516Z,15.60
2018-10-12T01:22:39.634Z,15.20
2018-10-12T01:25:08.353Z,15.80
2018-10-12T01:27:36.586Z,15.60
2018-10-12T01:30:05.725Z,15.40
2018-10-12T01:32:39.461Z,15.60
2018-10-12T01:35:07.562Z,15.70
2018-10-12T01:37:35.652Z,15.50
2018-10-12T01:40:03.969Z,15.10
2018-10-12T01:42:32.249Z,15.20
2018-10-12T01:45:00.369Z,15.30
2018-10-12T01:47:28.541Z,15.50
2018-10-12T01:49:56.660Z,15.40
2018-10-12T01:52:24.788Z,15.40
2018-10-12T01:54:52.837Z,15.30
2018-10-12T01:57:21.001Z,15.30
2018-10-12T01:59:50.148Z,15.30
2018-10-12T02:02:18.319Z,15.20
2018-10-12T02:04:46.461Z,15.00
2018-10-12T02:07:14.632Z,14.90
2018-10-12T02:09:42.700Z,15.10
2018-10-12T02:12:11.088Z,15.30
2018-10-12T02:14:39.257Z,15.00
2018-10-12T02:17:07.392Z,14.90
2018-10-12T02:19:35.482Z,14.90
2018-10-12T02:22:03.624Z,14.90
2018-10-12T02:24:31.645Z,15.00
2018-10-12T02:26:59.728Z,15.00
2018-10-12T02:29:27.942Z,15.00
2018-10-12T02:31:56.062Z,14.60
2018-10-12T02:34:24.061Z,14.50
2018-10-12T02:36:52.218Z,14.70
2018-10-12T02:39:20.356Z,14.80
2018-10-12T02:41:48.537Z,14.70
2018-10-12T02:44:16.591Z,14.80
2018-10-12T02:46:44.620Z,14.70
2018-10-12T02:49:12.784Z,14.70
2018-10-12T02:51:40.886Z,14.90
2018-10-12T02:54:08.957Z,15.00
2018-10-12T02:56:37.012Z,15.10
2018-10-12T02:59:05.457Z,15.00
2018-10-12T03:01:33.608Z,14.70
2018-10-12T03:04:01.689Z,14.90
2018-10-12T03:06:29.748Z,14.80
2018-10-12T03:08:57.860Z,14.80
2018-10-12T03:11:26.033Z,14.90
2018-10-12T03:13:54.172Z,14.80
2018-10-12T03:16:22.242Z,14.70
2018-10-12T03:18:50.374Z,14.90
2018-10-12T03:21:18.383Z,15.00
2018-10-12T03:23:46.461Z,15.10
2018-10-12T03:26:14.604Z,15.10
2018-10-12T03:28:42.735Z,15.10
2018-10-12T03:31:10.902Z,15.00
2018-10-12T03:33:39.434Z,15.00
2018-10-12T03:36:07.593Z,15.00
2018-10-12T03:38:35.750Z,15.00
2018-10-12T03:41:03.873Z,14.90
2018-10-12T03:43:32.813Z,14.80
2018-10-12T03:46:00.964Z,14.70
2018-10-12T03:48:29.116Z,14.60
2018-10-12T03:50:57.265Z,14.60
2018-10-12T03:53:25.383Z,14.40
2018-10-12T03:55:53.577Z,14.40
2018-10-12T03:58:21.702Z,14.20
2018-10-12T04:00:49.774Z,14.50
2018-10-12T04:03:17.890Z,14.50
2018-10-12T04:05:46.159Z,14.40
2018-10-12T04:08:14.270Z,14.30
2018-10-12T04:10:42.293Z,14.50
2018-10-12T04:13:10.359Z,14.30
2018-10-12T04:15:38.696Z,14.10
2018-10-12T04:18:06.874Z,14.20
2018-10-12T04:20:34.930Z,14.20
2018-10-12T04:23:03.040Z,14.20
2018-10-12T04:25:31.111Z,14.20
2018-10-12T04:27:59.187Z,14.30
2018-10-12T04:30:27.276Z,14.30
2018-10-12T04:32:55.370Z,14.30
2018-10-12T04:35:23.431Z,14.30
2018-10-12T04:37:51.983Z,14.40
2018-10-12T04:41:28.577Z,14.30
2018-10-12T04:44:00.104Z,14.30
2018-10-12T04:46:35.567Z,14.10
2018-10-12T04:49:05.717Z,14.30
2018-10-12T04:51:45.464Z,14.20
2018-10-12T04:54:13.655Z,14.40
2018-10-12T04:56:49.767Z,14.50
2018-10-12T04:59:18.221Z,14.60
2018-10-12T05:01:46.352Z,14.60
2018-10-12T05:04:14.496Z,14.50
2018-10-12T05:06:42.723Z,14.40
2018-10-12T05:09:12.690Z,14.40
2018-10-12T05:11:40.936Z,14.10
2018-10-12T05:14:09.764Z,14.10
2018-10-12T05:16:38.034Z,14.20
2018-10-12T05:19:06.585Z,14.40
2018-10-12T05:21:34.614Z,14.10
2018-10-12T05:24:03.169Z,14.40
2018-10-12T05:26:31.235Z,14.00
2018-10-12T05:28:59.770Z,13.80
2018-10-12T05:31:28.122Z,13.80
2018-10-12T05:33:56.223Z,14.10
2018-10-12T05:36:24.252Z,14.40
2018-10-12T05:38:52.348Z,14.00
2018-10-12T05:41:20.373Z,13.80
2018-10-12T05:43:48.482Z,14.00
2018-10-12T05:46:16.504Z,14.00
2018-10-12T05:49:01.670Z,13.90
2018-10-12T05:51:29.755Z,13.90
2018-10-12T05:53:58.216Z,14.20
2018-10-12T05:56:29.769Z,13.60
2018-10-12T05:58:58.511Z,14.40
2018-10-12T06:01:26.725Z,14.50
2018-10-12T06:03:54.727Z,14.90
2018-10-12T06:06:22.817Z,14.30
2018-10-12T06:08:50.972Z,14.60
2018-10-12T06:11:19.103Z,14.70
2018-10-12T06:13:47.235Z,14.50
2018-10-12T06:16:15.283Z,15.20
2018-10-12T06:18:43.310Z,14.60
2018-10-12T06:21:11.395Z,14.80
2018-10-12T06:23:39.589Z,15.40
2018-10-12T06:26:07.749Z,15.20
2018-10-12T06:28:35.903Z,15.10
2018-10-12T06:31:03.968Z,14.90
2018-10-12T06:33:32.076Z,15.30
2018-10-12T06:36:00.155Z,15.50
2018-10-12T06:38:28.300Z,15.50
2018-10-12T06:40:56.386Z,15.80
2018-10-12T06:43:24.500Z,15.20
2018-10-12T06:45:52.713Z,15.40
2018-10-12T06:48:20.803Z,15.50
2018-10-12T06:50:48.886Z,15.40
2018-10-12T06:53:16.879Z,15.20
2018-10-12T06:55:44.925Z,14.70
2018-10-12T06:58:13.478Z,14.60
2018-10-12T07:00:41.701Z,15.10
2018-10-12T07:03:10.205Z,15.30
2018-10-12T07:05:37.966Z,15.30
2018-10-12T07:08:06.050Z,15.50
2018-10-12T07:10:34.133Z,16.10
2018-10-12T07:13:02.187Z,16.30
2018-10-12T07:15:30.299Z,16.20
2018-10-12T07:17:58.432Z,16.70
2018-10-12T07:20:26.535Z,16.80
2018-10-12T07:22:55.085Z,17.00
2018-10-12T07:25:23.244Z,17.20
2018-10-12T07:27:51.567Z,17.20
2018-10-12T07:30:19.718Z,16.10
2018-10-12T07:32:47.861Z,16.50
2018-10-12T07:35:16.127Z,16.20
2018-10-12T07:37:44.536Z,16.80
2018-10-12T07:40:12.433Z,17.10
2018-10-12T07:42:40.639Z,17.30
2018-10-12T07:45:08.830Z,18.00
2018-10-12T07:47:36.965Z,18.10
2018-10-12T07:50:05.211Z,18.40
2018-10-12T07:52:33.578Z,18.40
2018-10-12T07:55:01.796Z,17.70
2018-10-12T07:57:32.868Z,17.30
2018-10-12T08:00:01.480Z,17.10
2018-10-12T08:02:29.695Z,17.10
2018-10-12T08:04:58.041Z,17.10
2018-10-12T08:07:26.154Z,17.80
2018-10-12T08:09:54.309Z,18.60
2018-10-12T08:12:22.435Z,19.10
2018-10-12T08:14:50.605Z,19.40
2018-10-12T08:17:18.820Z,18.10
2018-10-12T08:19:47.262Z,18.30
2018-10-12T08:22:15.525Z,18.60
2018-10-12T08:24:43.723Z,19.40
2018-10-12T08:27:12.337Z,19.30
2018-10-12T08:29:40.100Z,19.90
2018-10-12T08:32:08.381Z,20.10
2018-10-12T08:34:36.543Z,20.10
2018-10-12T08:37:04.959Z,19.70
2018-10-12T08:39:33.198Z,19.90
2018-10-12T08:42:01.612Z,20.00
2018-10-12T08:44:29.821Z,20.20
2018-10-12T08:46:58.019Z,20.10
2018-10-12T08:49:26.151Z,20.60
2018-10-12T08:51:54.337Z,20.50
2018-10-12T08:54:22.567Z,20.40
2018-10-12T08:56:50.849Z,20.80
2018-10-12T08:59:19.021Z,20.60
2018-10-12T09:01:47.269Z,20.90
2018-10-12T09:04:15.450Z,21.10
2018-10-12T09:06:43.655Z,21.00
2018-10-12T09:09:11.760Z,21.00
2018-10-12T09:11:40.556Z,21.10
2018-10-12T09:14:09.088Z,21.50
2018-10-12T09:16:37.293Z,21.90
2018-10-12T09:19:05.857Z,22.30
2018-10-12T09:21:33.975Z,22.60
2018-10-12T09:24:02.093Z,22.80
2018-10-12T09:26:30.376Z,22.90
2018-10-12T09:28:58.709Z,22.30
2018-10-12T09:31:26.901Z,22.70
2018-10-12T09:33:55.106Z,22.90
2018-10-12T09:36:23.379Z,23.10
2018-10-12T09:38:51.574Z,23.20
2018-10-12T09:41:19.833Z,23.00
2018-10-12T09:43:48.039Z,23.00
2018-10-12T09:46:16.206Z,23.40
2018-10-12T09:48:44.361Z,23.60
2018-10-12T09:51:12.479Z,23.90
2018-10-12T09:53:40.645Z,23.70
2018-10-12T09:56:08.884Z,24.00
2018-10-12T09:58:36.997Z,24.00
2018-10-12T10:01:10.900Z,23.60
2018-10-12T10:03:44.862Z,23.70
2018-10-12T10:06:13.109Z,24.00
2018-10-12T10:08:41.493Z,24.00
2018-10-12T10:11:09.796Z,23.20
2018-10-12T10:13:37.952Z,24.20
2018-10-12T10:16:06.104Z,24.20
2018-10-12T10:18:34.273Z,24.10
2018-10-12T10:21:02.557Z,24.40
2018-10-12T10:23:30.701Z,24.20
2018-10-12T10:25:59.268Z,24.70
2018-10-12T10:28:27.505Z,24.50
2018-10-12T10:30:55.742Z,24.50
2018-10-12T10:33:23.987Z,25.00
2018-10-12T10:35:52.273Z,24.50
2018-10-12T10:38:20.582Z,24.70
2018-10-12T10:40:48.820Z,24.60
2018-10-12T10:43:17.026Z,24.70
2018-10-12T10:45:45.310Z,24.70
2018-10-12T10:48:13.615Z,25.10
2018-10-12T10:50:41.872Z,25.50
2018-10-12T10:53:10.248Z,25.20
2018-10-12T10:55:38.517Z,25.50
2018-10-12T10:58:06.980Z,25.90
2018-10-12T11:00:35.428Z,25.90
2018-10-12T11:03:03.607Z,26.00
2018-10-12T11:05:31.826Z,26.30
2018-10-12T11:08:00.050Z,26.50
2018-10-12T11:10:28.200Z,26.70
2018-10-12T11:12:56.578Z,26.70
2018-10-12T11:15:24.626Z,26.30
2018-10-12T11:17:52.844Z,26.50
2018-10-12T11:20:21.525Z,26.70
2018-10-12T11:22:49.737Z,26.60
2018-10-12T11:25:17.931Z,26.30
2018-10-12T11:27:46.071Z,26.20
2018-10-12T11:30:14.432Z,26.20
2018-10-12T11:32:42.761Z,26.70
2018-10-12T11:35:11.420Z,26.60
2018-10-12T11:37:39.623Z,26.30
2018-10-12T11:40:07.890Z,27.10
2018-10-12T11:42:53.281Z,26.60
2018-10-12T11:45:21.556Z,26.60
2018-10-12T11:47:49.813Z,26.30
2018-10-12T11:50:18.217Z,26.60
2018-10-12T11:52:46.449Z,26.60
2018-10-12T11:55:14.714Z,26.50
2018-10-12T11:57:42.965Z,26.70
2018-10-12T12:00:12.092Z,26.50
2018-10-12T12:02:40.504Z,26.50
2018-10-12T12:05:08.781Z,26.50
2018-10-12T12:07:37.013Z,27.20
2018-10-12T12:10:05.509Z,26.70
2018-10-12T12:12:33.688Z,27.30
2018-10-12T12:15:01.912Z,27.50
2018-10-12T12:17:30.096Z,27.60
2018-10-12T12:19:58.283Z,27.50
2018-10-12T12:22:26.586Z,27.70
2018-10-12T12:24:54.840Z,27.30
2018-10-12T12:27:23.620Z,26.90
2018-10-12T12:29:52.859Z,27.70
2018-10-12T12:32:21.530Z,27.60
2018-10-12T12:34:49.792Z,27.30
2018-10-12T12:37:17.752Z,27.70
2018-10-12T12:39:45.823Z,27.80
2018-10-12T12:42:13.962Z,27.50
2018-10-12T12:44:42.129Z,27.20
2018-10-12T12:47:10.490Z,27.30
2018-10-12T12:49:38.664Z,27.40
2018-10-12T12:52:06.843Z,27.50
2018-10-12T12:54:35.040Z,27.40
2018-10-12T12:57:03.237Z,27.90
2018-10-12T12:59:31.324Z,27.70
2018-10-12T13:01:59.491Z,28.20
2018-10-12T13:04:27.671Z,28.50
2018-10-12T13:06:55.790Z,27.00
2018-10-12T13:09:26.551Z,28.20
2018-10-12T13:11:54.736Z,28.70
2018-10-12T13:14:22.939Z,28.60
2018-10-12T13:16:51.126Z,28.40
2018-10-12T13:19:19.351Z,28.40
2018-10-12T13:21:47.584Z,28.50
2018-10-12T13:24:16.448Z,28.20
2018-10-12T13:26:44.676Z,28.30
2018-10-12T13:29:12.850Z,28.20
2018-10-12T13:31:41.436Z,28.20
2018-10-12T13:34:09.722Z,28.40
2018-10-12T13:36:37.944Z,28.80
2018-10-12T13:39:10.607Z,28.40
2018-10-12T13:41:38.918Z,28.50
2018-10-12T13:44:07.676Z,27.90
2018-10-12T13:46:36.167Z,28.00
2018-10-12T13:49:04.489Z,28.60
2018-10-12T13:51:32.816Z,28.60
2018-10-12T13:54:01.033Z,29.10
2018-10-12T13:56:29.289Z,29.10
2018-10-12T13:58:57.531Z,29.20
2018-10-12T14:01:25.744Z,29.40
2018-10-12T14:03:53.904Z,29.50
2018-10-12T14:06:22.191Z,29.30
2018-10-12T14:08:50.480Z,28.50
2018-10-12T14:11:18.689Z,28.00
2018-10-12T14:13:46.865Z,28.20
2018-10-12T14:16:15.036Z,28.10
2018-10-12T14:18:43.349Z,28.80
2018-10-12T14:21:11.428Z,28.40
2018-10-12T14:23:39.587Z,28.60
2018-10-12T14:26:07.943Z,28.70
2018-10-12T14:28:36.253Z,29.00
2018-10-12T14:31:04.469Z,28.80
2018-10-12T14:33:32.712Z,28.40
2018-10-12T14:36:00.880Z,27.80
2018-10-12T14:38:29.158Z,28.10
2018-10-12T14:40:57.339Z,28.30
2018-10-12T14:43:25.689Z,27.80
2018-10-12T14:45:53.914Z,28.10
2018-10-12T14:48:22.053Z,28.20
2018-10-12T14:50:50.317Z,28.20
2018-10-12T14:53:18.648Z,28.40
2018-10-12T14:55:47.003Z,28.80
2018-10-12T14:58:15.411Z,28.90
2018-10-12T15:00:43.711Z,29.30
2018-10-12T15:03:12.052Z,29.80
2018-10-12T15:05:40.310Z,29.80
2018-10-12T15:08:08.496Z,30.00
2018-10-12T15:10:36.781Z,29.80
2018-10-12T15:13:04.911Z,30.40
2018-10-12T15:15:33.336Z,30.30
2018-10-12T15:18:01.519Z,30.40
2018-10-12T15:20:29.704Z,30.30
2018-10-12T15:22:57.901Z,30.30
2018-10-12T15:25:26.146Z,30.00
2018-10-12T15:27:54.373Z,29.80
2018-10-12T15:30:22.621Z,30.30
2018-10-12T15:32:50.849Z,30.30
2018-10-12T15:35:19.230Z,30.70
2018-10-12T15:37:47.561Z,30.50
2018-10-12T15:40:15.819Z,30.00
2018-10-12T15:42:44.068Z,29.00
2018-10-12T15:45:12.305Z,29.20
2018-10-12T15:47:40.576Z,28.90
2018-10-12T15:50:08.799Z,28.20
2018-10-12T15:52:36.959Z,27.90
2018-10-12T15:55:05.275Z,27.50
2018-10-12T15:57:33.433Z,27.40
2018-10-12T16:00:01.713Z,27.20
2018-10-12T16:02:30.110Z,26.90
2018-10-12T16:04:58.249Z,26.90
2018-10-12T16:07:26.858Z,26.70
2018-10-12T16:09:55.153Z,26.50
2018-10-12T16:12:23.823Z,26.50
2018-10-12T16:14:52.029Z,26.30
2018-10-12T16:17:20.245Z,26.00
2018-10-12T16:19:48.539Z,25.80
2018-10-12T16:22:16.787Z,25.80
2018-10-12T16:25:01.949Z,25.70
2018-10-12T16:27:30.245Z,25.50
2018-10-12T16:29:58.622Z,25.00
2018-10-12T16:32:26.821Z,25.00
2018-10-12T16:34:57.236Z,25.00
2018-10-12T16:37:25.496Z,25.00
2018-10-12T16:39:53.748Z,24.90
2018-10-12T16:42:22.116Z,24.80
2018-10-12T16:44:50.401Z,24.60
2018-10-12T16:47:18.678Z,24.40
2018-10-12T16:49:46.981Z,24.20
2018-10-12T16:52:15.220Z,24.00
2018-10-12T16:54:43.607Z,23.80
2018-10-12T16:57:11.937Z,23.60
2018-10-12T16:59:40.248Z,23.40
2018-10-12T17:02:08.415Z,23.30
2018-10-12T17:04:36.717Z,23.10
2018-10-12T17:07:04.921Z,23.00
2018-10-12T17:09:33.125Z,22.70
2018-10-12T17:12:01.335Z,22.80
2018-10-12T17:14:29.771Z,22.70
2018-10-12T17:16:58.040Z,22.50
2018-10-12T17:19:26.323Z,22.40
2018-10-12T17:21:54.530Z,22.00
2018-10-12T17:24:22.762Z,22.00
2018-10-12T17:26:51.124Z,22.00
2018-10-12T17:29:19.396Z,21.90
2018-10-12T17:31:47.645Z,21.80
2018-10-12T17:34:15.887Z,21.70
2018-10-12T17:36:44.151Z,21.70
2018-10-12T17:39:13.156Z,21.60
2018-10-12T17:41:41.431Z,21.60
2018-10-12T17:44:09.759Z,21.50
2018-10-12T17:46:38.012Z,21.40
2018-10-12T17:49:06.248Z,21.30
2018-10-12T17:51:34.603Z,21.10
2018-10-12T17:54:02.983Z,21.00
2018-10-12T17:56:31.535Z,20.90
2018-10-12T17:59:00.137Z,20.80
2018-10-12T18:01:28.420Z,20.90
2018-10-12T18:03:56.603Z,20.80
2018-10-12T18:06:24.869Z,20.80
2018-10-12T18:08:53.227Z,20.80
2018-10-12T18:11:21.700Z,20.80
2018-10-12T18:13:50.107Z,20.70
2018-10-12T18:16:18.408Z,20.60
2018-10-12T18:18:46.776Z,20.70
2018-10-12T18:21:15.182Z,20.60
2018-10-12T18:23:43.775Z,20.50
2018-10-12T18:26:12.206Z,20.40
2018-10-12T18:28:40.478Z,20.40
2018-10-12T18:31:08.701Z,20.40
2018-10-12T18:33:37.011Z,20.40
2018-10-12T18:36:05.490Z,20.50
2018-10-12T18:38:33.781Z,20.50
2018-10-12T18:41:02.164Z,20.30
2018-10-12T18:43:30.605Z,20.30
2018-10-12T18:45:58.883Z,20.30
2018-10-12T18:48:27.191Z,20.20
2018-10-12T18:50:55.568Z,20.10
2018-10-12T18:53:23.856Z,20.00
2018-10-12T18:55:52.322Z,20.00
2018-10-12T18:58:20.671Z,19.80
2018-10-12T19:00:48.958Z,19.80
2018-10-12T19:03:17.256Z,19.60
2018-10-12T19:05:45.637Z,19.60
2018-10-12T19:08:13.925Z,19.60
2018-10-12T19:10:42.338Z,19.50
2018-10-12T19:13:10.754Z,19.60
2018-10-12T19:15:39.170Z,19.50
2018-10-12T19:18:09.152Z,19.40
2018-10-12T19:20:38.136Z,19.30
2018-10-12T19:23:06.939Z,19.10
2018-10-12T19:25:36.442Z,18.90
2018-10-12T19:28:05.138Z,19.00
2018-10-12T19:30:33.703Z,19.30
2018-10-12T19:33:02.257Z,19.40
2018-10-12T19:35:30.968Z,19.40
2018-10-12T19:37:59.462Z,19.20
2018-10-12T19:40:28.011Z,18.80
2018-10-12T19:42:56.555Z,18.70
2018-10-12T19:45:24.852Z,18.70
2018-10-12T19:47:53.512Z,18.80
2018-10-12T19:50:22.027Z,18.40
2018-10-12T19:52:50.708Z,18.50
2018-10-12T19:55:19.152Z,18.70
2018-10-12T19:57:47.724Z,18.70
2018-10-12T20:00:16.205Z,19.00
2018-10-12T20:02:44.562Z,19.20
2018-10-12T20:05:13.083Z,19.20
2018-10-12T20:07:42.421Z,19.10
2018-10-12T20:10:11.397Z,19.10
2018-10-12T20:12:39.718Z,18.90
2018-10-12T20:15:08.098Z,18.80
2018-10-12T20:17:36.370Z,18.70
2018-10-12T20:20:04.748Z,18.70
2018-10-12T20:22:33.031Z,18.70
2018-10-12T20:25:01.672Z,18.60
2018-10-12T20:27:29.960Z,18.50
2018-10-12T20:29:58.337Z,18.50
2018-10-12T20:32:26.663Z,18.40
2018-10-12T20:34:55.119Z,18.30
2018-10-12T20:37:23.403Z,18.30
2018-10-12T20:39:51.690Z,18.30
2018-10-12T20:42:20.024Z,18.20
2018-10-12T20:44:48.368Z,18.20
2018-10-12T20:47:16.739Z,18.10
2018-10-12T20:49:45.219Z,18.10
2018-10-12T20:52:13.508Z,18.00
2018-10-12T20:54:41.844Z,18.00
2018-10-12T20:57:10.301Z,17.90
2018-10-12T20:59:38.623Z,17.80
2018-10-12T21:02:07.210Z,17.80
2018-10-12T21:04:35.535Z,17.60
2018-10-12T21:07:03.949Z,18.00
2018-10-12T21:09:32.346Z,18.10
2018-10-12T21:12:00.691Z,18.10
2018-10-12T21:14:28.887Z,18.10
2018-10-12T21:16:57.247Z,17.90
2018-10-12T21:19:25.486Z,17.90
2018-10-12T21:21:54.103Z,18.10
2018-10-12T21:24:22.358Z,17.90
2018-10-12T21:26:50.552Z,17.80
2018-10-12T21:29:18.946Z,17.80
2018-10-12T21:31:47.952Z,17.70
2018-10-12T21:34:16.311Z,17.80
2018-10-12T21:36:44.676Z,17.80
2018-10-12T21:39:13.156Z,17.80
2018-10-12T21:41:41.581Z,17.80
2018-10-12T21:44:10.034Z,17.80
2018-10-12T21:46:38.334Z,17.80
2018-10-12T21:49:06.593Z,17.80
2018-10-12T21:51:34.793Z,17.80
2018-10-12T21:54:03.054Z,17.70
2018-10-12T21:56:31.387Z,17.50
2018-10-12T21:58:59.479Z,17.60
2018-10-12T22:01:27.672Z,17.60
2018-10-12T22:03:55.840Z,17.60
2018-10-12T22:06:24.172Z,17.50
2018-10-12T22:08:56.906Z,17.40
2018-10-12T22:11:25.214Z,17.40
2018-10-12T22:13:53.712Z,17.40
2018-10-12T22:16:21.865Z,17.40
2018-10-12T22:18:50.313Z,17.30
2018-10-12T22:21:18.573Z,16.90
2018-10-12T22:23:46.821Z,17.10
2018-10-12T22:26:15.101Z,17.30
2018-10-12T22:28:43.255Z,17.30
2018-10-12T22:31:11.601Z,17.00
2018-10-12T22:33:39.906Z,17.10
2018-10-12T22:36:08.202Z,17.20
2018-10-12T22:38:36.476Z,17.30
2018-10-12T22:41:04.672Z,17.20
2018-10-12T22:43:32.856Z,17.10
2018-10-12T22:46:01.059Z,17.20
2018-10-12T22:48:29.272Z,17.20
2018-10-12T22:50:57.483Z,17.00
2018-10-12T22:53:25.664Z,17.10
2018-10-12T22:55:54.016Z,17.10
2018-10-12T22:58:22.217Z,17.20
2018-10-12T23:00:50.534Z,17.30
2018-10-12T23:03:18.800Z,17.20
2018-10-12T23:05:46.840Z,17.20
2018-10-12T23:08:15.325Z,17.20
2018-10-12T23:10:43.548Z,17.20
2018-10-12T23:13:12.480Z,17.10
2018-10-12T23:15:40.630Z,17.00
2018-10-12T23:18:08.818Z,16.80
2018-10-12T23:20:36.997Z,16.70
2018-10-12T23:23:05.625Z,16.90
2018-10-12T23:25:33.802Z,16.60
2018-10-12T23:28:02.081Z,16.60
2018-10-12T23:30:30.264Z,16.80
2018-10-12T23:33:15.484Z,16.80
2018-10-12T23:35:43.659Z,16.80
2018-10-12T23:38:12.064Z,16.90
2018-10-12T23:40:40.192Z,16.90
2018-10-12T23:43:08.372Z,16.90
2018-10-12T23:45:36.565Z,17.00
2018-10-12T23:48:04.679Z,16.90
2018-10-12T23:50:32.866Z,16.70
2018-10-12T23:53:01.048Z,16.70
2018-10-12T23:55:29.212Z,16.80
2018-10-12T23:57:57.390Z,16.80
